sensor_id;sensor_type;location;lat;lon;timestamp;P1;durP1;ratioP1;P2;durP2;ratioP2
74872;SDS011;68776;44.762;37.698;2023-04-16T00:00:09;11.57;;;5.07;;
74872;SDS011;68776;44.762;37.698;2023-04-16T00:01:13;10.98;;;5.40;;
74872;SDS011;68776;44.762;37.698;2023-04-16T00:02:14;11.18;;;5.30;;
74872;SDS011;68776;44.762;37.698;2023-04-16T00:03:15;10.73;;;5.00;;
74872;SDS011;68776;44.762;37.698;2023-04-16T00:04:16;10.40;;;5.43;;
74872;SDS011;68776;44.762;37.698;2023-04-16T00:05:17;11.80;;;5.70;;
74872;SDS011;68776;44.762;37.698;2023-04-16T00:06:18;11.02;;;5.30;;
74872;SDS011;68776;44.762;37.698;2023-04-16T00:07:19;18.20;;;7.50;;
74872;SDS011;68776;44.762;37.698;2023-04-16T00:08:20;31.77;;;12.55;;
74872;SDS011;68776;44.762;37.698;2023-04-16T00:09:23;17.93;;;7.13;;
74872;SDS011;68776;44.762;37.698;2023-04-16T00:10:24;12.15;;;6.03;;
74872;SDS011;68776;44.762;37.698;2023-04-16T00:11:25;14.70;;;6.40;;
74872;SDS011;68776;44.762;37.698;2023-04-16T00:12:26;13.35;;;6.07;;
74872;SDS011;68776;44.762;37.698;2023-04-16T00:13:27;10.50;;;5.10;;
74872;SDS011;68776;44.762;37.698;2023-04-16T00:14:28;10.48;;;5.15;;
74872;SDS011;68776;44.762;37.698;2023-04-16T00:15:29;13.35;;;6.25;;
74872;SDS011;68776;44.762;37.698;2023-04-16T00:16:30;13.40;;;6.00;;
74872;SDS011;68776;44.762;37.698;2023-04-16T00:17:31;11.88;;;5.18;;
74872;SDS011;68776;44.762;37.698;2023-04-16T00:18:32;11.40;;;5.35;;
74872;SDS011;68776;44.762;37.698;2023-04-16T00:19:33;10.88;;;5.85;;
74872;SDS011;68776;44.762;37.698;2023-04-16T00:20:34;11.68;;;5.85;;
74872;SDS011;68776;44.762;37.698;2023-04-16T00:21:35;10.20;;;5.20;;
74872;SDS011;68776;44.762;37.698;2023-04-16T00:22:36;11.68;;;4.93;;
74872;SDS011;68776;44.762;37.698;2023-04-16T00:23:37;13.18;;;5.45;;
74872;SDS011;68776;44.762;37.698;2023-04-16T00:24:38;15.77;;;5.97;;
74872;SDS011;68776;44.762;37.698;2023-04-16T00:25:38;11.02;;;5.00;;
74872;SDS011;68776;44.762;37.698;2023-04-16T00:26:40;9.88;;;4.75;;
74872;SDS011;68776;44.762;37.698;2023-04-16T00:27:43;11.43;;;5.18;;
74872;SDS011;68776;44.762;37.698;2023-04-16T00:28:44;11.47;;;5.30;;
74872;SDS011;68776;44.762;37.698;2023-04-16T00:29:45;11.60;;;5.50;;
74872;SDS011;68776;44.762;37.698;2023-04-16T00:30:46;10.63;;;4.85;;
74872;SDS011;68776;44.762;37.698;2023-04-16T00:31:47;10.70;;;5.32;;
74872;SDS011;68776;44.762;37.698;2023-04-16T00:32:48;10.32;;;4.90;;
74872;SDS011;68776;44.762;37.698;2023-04-16T00:33:49;11.23;;;4.90;;
74872;SDS011;68776;44.762;37.698;2023-04-16T00:34:50;10.45;;;4.90;;
74872;SDS011;68776;44.762;37.698;2023-04-16T00:35:51;10.90;;;5.38;;
74872;SDS011;68776;44.762;37.698;2023-04-16T00:36:52;9.60;;;4.97;;
74872;SDS011;68776;44.762;37.698;2023-04-16T00:37:53;10.20;;;5.13;;
74872;SDS011;68776;44.762;37.698;2023-04-16T00:38:55;9.73;;;4.97;;
74872;SDS011;68776;44.762;37.698;2023-04-16T00:39:56;9.68;;;4.82;;
74872;SDS011;68776;44.762;37.698;2023-04-16T00:40:57;10.10;;;4.80;;
74872;SDS011;68776;44.762;37.698;2023-04-16T00:41:58;9.98;;;4.78;;
74872;SDS011;68776;44.762;37.698;2023-04-16T00:42:59;10.13;;;4.53;;
74872;SDS011;68776;44.762;37.698;2023-04-16T00:44:00;11.00;;;5.05;;
74872;SDS011;68776;44.762;37.698;2023-04-16T00:45:02;10.10;;;4.80;;
74872;SDS011;68776;44.762;37.698;2023-04-16T00:46:04;10.32;;;4.85;;
74872;SDS011;68776;44.762;37.698;2023-04-16T00:47:06;9.85;;;4.70;;
74872;SDS011;68776;44.762;37.698;2023-04-16T00:48:08;9.88;;;4.75;;
74872;SDS011;68776;44.762;37.698;2023-04-16T00:49:09;10.20;;;5.28;;
74872;SDS011;68776;44.762;37.698;2023-04-16T00:50:10;9.40;;;4.57;;
74872;SDS011;68776;44.762;37.698;2023-04-16T00:51:11;9.70;;;4.50;;
74872;SDS011;68776;44.762;37.698;2023-04-16T00:52:12;9.70;;;4.55;;
74872;SDS011;68776;44.762;37.698;2023-04-16T00:53:14;9.52;;;4.75;;
74872;SDS011;68776;44.762;37.698;2023-04-16T00:54:15;9.65;;;4.72;;
74872;SDS011;68776;44.762;37.698;2023-04-16T00:55:16;9.07;;;4.22;;
74872;SDS011;68776;44.762;37.698;2023-04-16T00:56:18;9.20;;;4.10;;
74872;SDS011;68776;44.762;37.698;2023-04-16T00:57:22;10.68;;;4.60;;
74872;SDS011;68776;44.762;37.698;2023-04-16T00:58:23;9.80;;;4.68;;
74872;SDS011;68776;44.762;37.698;2023-04-16T00:59:25;9.82;;;4.93;;
74872;SDS011;68776;44.762;37.698;2023-04-16T01:00:26;10.07;;;4.88;;
74872;SDS011;68776;44.762;37.698;2023-04-16T01:01:27;10.52;;;4.70;;
74872;SDS011;68776;44.762;37.698;2023-04-16T01:02:28;9.90;;;5.00;;
74872;SDS011;68776;44.762;37.698;2023-04-16T01:03:41;12.38;;;5.00;;
74872;SDS011;68776;44.762;37.698;2023-04-16T01:04:44;9.75;;;4.97;;
74872;SDS011;68776;44.762;37.698;2023-04-16T01:05:45;11.13;;;4.57;;
74872;SDS011;68776;44.762;37.698;2023-04-16T01:06:48;10.88;;;4.80;;
74872;SDS011;68776;44.762;37.698;2023-04-16T01:07:50;10.63;;;4.82;;
74872;SDS011;68776;44.762;37.698;2023-04-16T01:08:51;10.27;;;4.72;;
74872;SDS011;68776;44.762;37.698;2023-04-16T01:09:52;9.65;;;4.88;;
74872;SDS011;68776;44.762;37.698;2023-04-16T01:10:53;11.25;;;5.07;;
74872;SDS011;68776;44.762;37.698;2023-04-16T01:11:54;9.73;;;4.77;;
74872;SDS011;68776;44.762;37.698;2023-04-16T01:12:55;10.45;;;4.63;;
74872;SDS011;68776;44.762;37.698;2023-04-16T01:13:56;9.73;;;4.70;;
74872;SDS011;68776;44.762;37.698;2023-04-16T01:14:57;11.23;;;5.18;;
74872;SDS011;68776;44.762;37.698;2023-04-16T01:15:59;9.63;;;4.97;;
74872;SDS011;68776;44.762;37.698;2023-04-16T01:17:01;10.43;;;4.75;;
74872;SDS011;68776;44.762;37.698;2023-04-16T01:18:11;11.10;;;4.47;;
74872;SDS011;68776;44.762;37.698;2023-04-16T01:19:16;10.15;;;4.75;;
74872;SDS011;68776;44.762;37.698;2023-04-16T01:20:17;10.10;;;4.43;;
74872;SDS011;68776;44.762;37.698;2023-04-16T01:21:18;10.27;;;4.60;;
74872;SDS011;68776;44.762;37.698;2023-04-16T01:22:19;11.18;;;4.80;;
74872;SDS011;68776;44.762;37.698;2023-04-16T01:23:20;9.88;;;4.50;;
74872;SDS011;68776;44.762;37.698;2023-04-16T01:24:21;9.45;;;4.78;;
74872;SDS011;68776;44.762;37.698;2023-04-16T01:25:22;9.35;;;4.55;;
74872;SDS011;68776;44.762;37.698;2023-04-16T01:26:23;10.63;;;4.93;;
74872;SDS011;68776;44.762;37.698;2023-04-16T01:27:24;8.60;;;4.13;;
74872;SDS011;68776;44.762;37.698;2023-04-16T01:28:26;9.38;;;4.40;;
74872;SDS011;68776;44.762;37.698;2023-04-16T01:29:27;10.93;;;4.50;;
74872;SDS011;68776;44.762;37.698;2023-04-16T01:30:30;9.77;;;4.80;;
74872;SDS011;68776;44.762;37.698;2023-04-16T01:31:57;10.68;;;4.70;;
74872;SDS011;68776;44.762;37.698;2023-04-16T01:33:05;9.82;;;4.85;;
74872;SDS011;68776;44.762;37.698;2023-04-16T01:34:07;9.63;;;4.80;;
74872;SDS011;68776;44.762;37.698;2023-04-16T01:35:08;10.57;;;4.82;;
74872;SDS011;68776;44.762;37.698;2023-04-16T01:36:09;9.80;;;4.70;;
74872;SDS011;68776;44.762;37.698;2023-04-16T01:37:10;12.35;;;5.35;;
74872;SDS011;68776;44.762;37.698;2023-04-16T01:38:12;11.43;;;4.70;;
74872;SDS011;68776;44.762;37.698;2023-04-16T01:39:12;10.18;;;4.90;;
74872;SDS011;68776;44.762;37.698;2023-04-16T01:40:15;11.82;;;4.82;;
74872;SDS011;68776;44.762;37.698;2023-04-16T01:41:16;9.40;;;4.37;;
74872;SDS011;68776;44.762;37.698;2023-04-16T01:42:17;10.95;;;5.10;;
74872;SDS011;68776;44.762;37.698;2023-04-16T01:43:18;11.60;;;5.13;;
74872;SDS011;68776;44.762;37.698;2023-04-16T01:44:20;11.88;;;5.35;;
74872;SDS011;68776;44.762;37.698;2023-04-16T01:45:22;11.02;;;5.20;;
74872;SDS011;68776;44.762;37.698;2023-04-16T01:46:26;11.90;;;5.38;;
74872;SDS011;68776;44.762;37.698;2023-04-16T01:47:31;11.50;;;5.20;;
74872;SDS011;68776;44.762;37.698;2023-04-16T01:48:31;10.73;;;4.80;;
74872;SDS011;68776;44.762;37.698;2023-04-16T01:49:33;10.60;;;4.80;;
74872;SDS011;68776;44.762;37.698;2023-04-16T01:50:35;10.48;;;4.38;;
74872;SDS011;68776;44.762;37.698;2023-04-16T01:51:37;14.07;;;5.72;;
74872;SDS011;68776;44.762;37.698;2023-04-16T01:52:37;11.75;;;5.32;;
74872;SDS011;68776;44.762;37.698;2023-04-16T01:53:38;10.23;;;5.07;;
74872;SDS011;68776;44.762;37.698;2023-04-16T01:54:39;12.30;;;5.80;;
74872;SDS011;68776;44.762;37.698;2023-04-16T01:55:40;11.37;;;5.27;;
74872;SDS011;68776;44.762;37.698;2023-04-16T01:56:41;14.35;;;6.25;;
74872;SDS011;68776;44.762;37.698;2023-04-16T01:57:42;12.93;;;6.03;;
74872;SDS011;68776;44.762;37.698;2023-04-16T01:58:45;12.77;;;5.72;;
74872;SDS011;68776;44.762;37.698;2023-04-16T01:59:48;14.30;;;6.50;;
74872;SDS011;68776;44.762;37.698;2023-04-16T02:00:51;12.25;;;5.45;;
74872;SDS011;68776;44.762;37.698;2023-04-16T02:01:52;12.48;;;5.60;;
74872;SDS011;68776;44.762;37.698;2023-04-16T02:02:53;10.57;;;4.95;;
74872;SDS011;68776;44.762;37.698;2023-04-16T02:04:00;11.35;;;5.40;;
74872;SDS011;68776;44.762;37.698;2023-04-16T02:05:01;11.15;;;5.40;;
74872;SDS011;68776;44.762;37.698;2023-04-16T02:06:02;12.20;;;5.82;;
74872;SDS011;68776;44.762;37.698;2023-04-16T02:07:04;11.82;;;5.28;;
74872;SDS011;68776;44.762;37.698;2023-04-16T02:08:05;12.52;;;5.65;;
74872;SDS011;68776;44.762;37.698;2023-04-16T02:09:06;11.63;;;5.45;;
74872;SDS011;68776;44.762;37.698;2023-04-16T02:10:07;12.07;;;5.40;;
74872;SDS011;68776;44.762;37.698;2023-04-16T02:11:11;11.82;;;5.53;;
74872;SDS011;68776;44.762;37.698;2023-04-16T02:12:12;10.98;;;5.18;;
74872;SDS011;68776;44.762;37.698;2023-04-16T02:13:14;11.88;;;5.70;;
74872;SDS011;68776;44.762;37.698;2023-04-16T02:14:17;13.07;;;5.68;;
74872;SDS011;68776;44.762;37.698;2023-04-16T02:15:19;13.35;;;6.07;;
74872;SDS011;68776;44.762;37.698;2023-04-16T02:16:20;12.38;;;6.00;;
74872;SDS011;68776;44.762;37.698;2023-04-16T02:17:26;12.10;;;5.50;;
74872;SDS011;68776;44.762;37.698;2023-04-16T02:18:39;12.93;;;6.18;;
74872;SDS011;68776;44.762;37.698;2023-04-16T02:19:40;13.02;;;6.07;;
74872;SDS011;68776;44.762;37.698;2023-04-16T02:20:43;14.40;;;6.03;;
74872;SDS011;68776;44.762;37.698;2023-04-16T02:21:46;12.98;;;5.57;;
74872;SDS011;68776;44.762;37.698;2023-04-16T02:22:47;12.75;;;5.93;;
74872;SDS011;68776;44.762;37.698;2023-04-16T02:23:51;11.77;;;4.95;;
74872;SDS011;68776;44.762;37.698;2023-04-16T02:24:59;12.85;;;6.07;;
74872;SDS011;68776;44.762;37.698;2023-04-16T02:26:01;13.73;;;6.20;;
74872;SDS011;68776;44.762;37.698;2023-04-16T02:27:03;11.82;;;5.43;;
74872;SDS011;68776;44.762;37.698;2023-04-16T02:28:04;13.38;;;6.13;;
74872;SDS011;68776;44.762;37.698;2023-04-16T02:29:10;12.68;;;6.20;;
74872;SDS011;68776;44.762;37.698;2023-04-16T02:30:16;13.02;;;5.78;;
74872;SDS011;68776;44.762;37.698;2023-04-16T02:31:17;13.60;;;5.88;;
74872;SDS011;68776;44.762;37.698;2023-04-16T02:32:19;13.32;;;6.28;;
74872;SDS011;68776;44.762;37.698;2023-04-16T02:33:20;13.23;;;6.05;;
74872;SDS011;68776;44.762;37.698;2023-04-16T02:34:32;13.45;;;6.10;;
74872;SDS011;68776;44.762;37.698;2023-04-16T02:35:35;12.63;;;6.00;;
74872;SDS011;68776;44.762;37.698;2023-04-16T02:36:37;13.02;;;5.95;;
74872;SDS011;68776;44.762;37.698;2023-04-16T02:37:38;12.88;;;5.72;;
74872;SDS011;68776;44.762;37.698;2023-04-16T02:38:40;12.27;;;5.93;;
74872;SDS011;68776;44.762;37.698;2023-04-16T02:39:41;13.63;;;6.10;;
74872;SDS011;68776;44.762;37.698;2023-04-16T02:40:43;14.50;;;6.47;;
74872;SDS011;68776;44.762;37.698;2023-04-16T02:41:44;12.30;;;5.93;;
74872;SDS011;68776;44.762;37.698;2023-04-16T02:42:45;14.40;;;6.50;;
74872;SDS011;68776;44.762;37.698;2023-04-16T02:43:46;12.60;;;6.10;;
74872;SDS011;68776;44.762;37.698;2023-04-16T02:44:48;15.07;;;6.35;;
74872;SDS011;68776;44.762;37.698;2023-04-16T02:45:48;13.57;;;6.25;;
74872;SDS011;68776;44.762;37.698;2023-04-16T02:46:49;13.10;;;6.00;;
74872;SDS011;68776;44.762;37.698;2023-04-16T02:47:50;15.43;;;7.03;;
74872;SDS011;68776;44.762;37.698;2023-04-16T02:48:52;18.00;;;7.82;;
74872;SDS011;68776;44.762;37.698;2023-04-16T02:49:53;11.65;;;5.43;;
74872;SDS011;68776;44.762;37.698;2023-04-16T02:50:54;14.40;;;6.57;;
74872;SDS011;68776;44.762;37.698;2023-04-16T02:51:55;14.05;;;6.38;;
74872;SDS011;68776;44.762;37.698;2023-04-16T02:52:56;15.32;;;6.88;;
74872;SDS011;68776;44.762;37.698;2023-04-16T02:53:57;14.30;;;6.40;;
74872;SDS011;68776;44.762;37.698;2023-04-16T02:54:58;12.52;;;5.70;;
74872;SDS011;68776;44.762;37.698;2023-04-16T02:55:59;12.98;;;5.68;;
74872;SDS011;68776;44.762;37.698;2023-04-16T02:57:00;14.98;;;5.88;;
74872;SDS011;68776;44.762;37.698;2023-04-16T02:58:01;13.57;;;6.22;;
74872;SDS011;68776;44.762;37.698;2023-04-16T02:59:02;13.68;;;6.18;;
74872;SDS011;68776;44.762;37.698;2023-04-16T03:00:04;12.13;;;5.10;;
74872;SDS011;68776;44.762;37.698;2023-04-16T03:01:06;14.60;;;6.53;;
74872;SDS011;68776;44.762;37.698;2023-04-16T03:02:07;12.00;;;5.85;;
74872;SDS011;68776;44.762;37.698;2023-04-16T03:03:07;15.63;;;6.20;;
74872;SDS011;68776;44.762;37.698;2023-04-16T03:04:08;13.43;;;6.55;;
74872;SDS011;68776;44.762;37.698;2023-04-16T03:05:09;14.20;;;6.30;;
74872;SDS011;68776;44.762;37.698;2023-04-16T03:06:11;13.63;;;6.30;;
74872;SDS011;68776;44.762;37.698;2023-04-16T03:07:12;13.03;;;5.93;;
74872;SDS011;68776;44.762;37.698;2023-04-16T03:08:14;13.00;;;5.05;;
74872;SDS011;68776;44.762;37.698;2023-04-16T03:09:15;13.70;;;6.63;;
74872;SDS011;68776;44.762;37.698;2023-04-16T03:10:16;14.57;;;6.80;;
74872;SDS011;68776;44.762;37.698;2023-04-16T03:11:17;13.63;;;6.37;;
74872;SDS011;68776;44.762;37.698;2023-04-16T03:12:19;13.23;;;5.90;;
74872;SDS011;68776;44.762;37.698;2023-04-16T03:13:20;12.32;;;5.75;;
74872;SDS011;68776;44.762;37.698;2023-04-16T03:14:21;12.10;;;5.20;;
74872;SDS011;68776;44.762;37.698;2023-04-16T03:15:22;13.68;;;5.95;;
74872;SDS011;68776;44.762;37.698;2023-04-16T03:16:24;12.67;;;5.93;;
74872;SDS011;68776;44.762;37.698;2023-04-16T03:17:25;12.65;;;6.18;;
74872;SDS011;68776;44.762;37.698;2023-04-16T03:18:26;13.60;;;6.03;;
74872;SDS011;68776;44.762;37.698;2023-04-16T03:19:27;12.63;;;5.60;;
74872;SDS011;68776;44.762;37.698;2023-04-16T03:20:28;13.60;;;6.00;;
74872;SDS011;68776;44.762;37.698;2023-04-16T03:21:29;12.68;;;5.80;;
74872;SDS011;68776;44.762;37.698;2023-04-16T03:22:32;13.65;;;6.47;;
74872;SDS011;68776;44.762;37.698;2023-04-16T03:23:33;13.15;;;5.85;;
74872;SDS011;68776;44.762;37.698;2023-04-16T03:24:35;13.20;;;5.93;;
74872;SDS011;68776;44.762;37.698;2023-04-16T03:25:37;13.15;;;5.95;;
74872;SDS011;68776;44.762;37.698;2023-04-16T03:26:41;13.88;;;5.95;;
74872;SDS011;68776;44.762;37.698;2023-04-16T03:27:43;12.45;;;4.70;;
74872;SDS011;68776;44.762;37.698;2023-04-16T03:28:45;13.23;;;6.20;;
74872;SDS011;68776;44.762;37.698;2023-04-16T03:29:46;13.97;;;6.27;;
74872;SDS011;68776;44.762;37.698;2023-04-16T03:30:50;13.18;;;6.20;;
74872;SDS011;68776;44.762;37.698;2023-04-16T03:31:52;14.43;;;6.07;;
74872;SDS011;68776;44.762;37.698;2023-04-16T03:32:54;14.23;;;6.57;;
74872;SDS011;68776;44.762;37.698;2023-04-16T03:33:55;15.23;;;6.63;;
74872;SDS011;68776;44.762;37.698;2023-04-16T03:34:56;13.15;;;5.88;;
74872;SDS011;68776;44.762;37.698;2023-04-16T03:35:57;13.30;;;6.25;;
74872;SDS011;68776;44.762;37.698;2023-04-16T03:37:00;15.93;;;7.25;;
74872;SDS011;68776;44.762;37.698;2023-04-16T03:38:01;22.92;;;8.13;;
74872;SDS011;68776;44.762;37.698;2023-04-16T03:39:02;30.88;;;11.07;;
74872;SDS011;68776;44.762;37.698;2023-04-16T03:40:04;35.47;;;12.38;;
74872;SDS011;68776;44.762;37.698;2023-04-16T03:41:06;22.90;;;8.55;;
74872;SDS011;68776;44.762;37.698;2023-04-16T03:42:07;18.02;;;7.50;;
74872;SDS011;68776;44.762;37.698;2023-04-16T03:43:08;15.95;;;6.93;;
74872;SDS011;68776;44.762;37.698;2023-04-16T03:44:10;15.75;;;6.70;;
74872;SDS011;68776;44.762;37.698;2023-04-16T03:45:11;14.55;;;5.78;;
74872;SDS011;68776;44.762;37.698;2023-04-16T03:46:12;11.80;;;5.75;;
74872;SDS011;68776;44.762;37.698;2023-04-16T03:47:13;13.07;;;5.80;;
74872;SDS011;68776;44.762;37.698;2023-04-16T03:48:14;16.80;;;6.40;;
74872;SDS011;68776;44.762;37.698;2023-04-16T03:49:16;12.52;;;5.63;;
74872;SDS011;68776;44.762;37.698;2023-04-16T03:50:17;11.13;;;5.00;;
74872;SDS011;68776;44.762;37.698;2023-04-16T03:51:19;13.40;;;5.95;;
74872;SDS011;68776;44.762;37.698;2023-04-16T03:52:20;13.55;;;6.40;;
74872;SDS011;68776;44.762;37.698;2023-04-16T03:53:21;16.00;;;6.57;;
74872;SDS011;68776;44.762;37.698;2023-04-16T03:54:22;14.53;;;5.90;;
74872;SDS011;68776;44.762;37.698;2023-04-16T03:55:31;13.10;;;6.07;;
74872;SDS011;68776;44.762;37.698;2023-04-16T03:56:32;14.07;;;6.10;;
74872;SDS011;68776;44.762;37.698;2023-04-16T03:57:33;13.77;;;6.13;;
74872;SDS011;68776;44.762;37.698;2023-04-16T03:58:39;11.73;;;5.28;;
74872;SDS011;68776;44.762;37.698;2023-04-16T03:59:41;11.30;;;4.65;;
74872;SDS011;68776;44.762;37.698;2023-04-16T04:00:42;11.88;;;5.38;;
74872;SDS011;68776;44.762;37.698;2023-04-16T04:01:47;11.82;;;5.32;;
74872;SDS011;68776;44.762;37.698;2023-04-16T04:02:48;13.43;;;5.78;;
74872;SDS011;68776;44.762;37.698;2023-04-16T04:03:52;15.88;;;5.90;;
74872;SDS011;68776;44.762;37.698;2023-04-16T04:04:54;14.65;;;6.13;;
74872;SDS011;68776;44.762;37.698;2023-04-16T04:05:55;12.50;;;6.20;;
74872;SDS011;68776;44.762;37.698;2023-04-16T04:07:02;13.52;;;5.80;;
74872;SDS011;68776;44.762;37.698;2023-04-16T04:08:03;11.45;;;4.75;;
74872;SDS011;68776;44.762;37.698;2023-04-16T04:09:05;13.45;;;5.95;;
74872;SDS011;68776;44.762;37.698;2023-04-16T04:10:06;13.15;;;5.53;;
74872;SDS011;68776;44.762;37.698;2023-04-16T04:11:12;11.80;;;5.70;;
74872;SDS011;68776;44.762;37.698;2023-04-16T04:12:14;12.13;;;5.35;;
74872;SDS011;68776;44.762;37.698;2023-04-16T04:13:17;12.35;;;5.80;;
74872;SDS011;68776;44.762;37.698;2023-04-16T04:14:18;12.60;;;6.07;;
74872;SDS011;68776;44.762;37.698;2023-04-16T04:15:19;12.75;;;5.68;;
74872;SDS011;68776;44.762;37.698;2023-04-16T04:16:21;12.27;;;6.22;;
74872;SDS011;68776;44.762;37.698;2023-04-16T04:17:21;11.75;;;5.90;;
74872;SDS011;68776;44.762;37.698;2023-04-16T04:18:24;12.13;;;5.65;;
74872;SDS011;68776;44.762;37.698;2023-04-16T04:19:25;12.75;;;5.90;;
74872;SDS011;68776;44.762;37.698;2023-04-16T04:20:26;13.13;;;5.93;;
74872;SDS011;68776;44.762;37.698;2023-04-16T04:21:27;14.32;;;6.20;;
74872;SDS011;68776;44.762;37.698;2023-04-16T04:22:28;11.85;;;5.63;;
74872;SDS011;68776;44.762;37.698;2023-04-16T04:23:30;14.73;;;6.05;;
74872;SDS011;68776;44.762;37.698;2023-04-16T04:24:30;12.37;;;5.60;;
74872;SDS011;68776;44.762;37.698;2023-04-16T04:25:32;11.52;;;5.63;;
74872;SDS011;68776;44.762;37.698;2023-04-16T04:26:33;13.80;;;6.40;;
74872;SDS011;68776;44.762;37.698;2023-04-16T04:27:34;13.10;;;5.93;;
74872;SDS011;68776;44.762;37.698;2023-04-16T04:28:35;13.70;;;6.32;;
74872;SDS011;68776;44.762;37.698;2023-04-16T04:29:38;12.30;;;5.47;;
74872;SDS011;68776;44.762;37.698;2023-04-16T04:30:39;11.57;;;5.07;;
74872;SDS011;68776;44.762;37.698;2023-04-16T04:31:40;11.77;;;5.33;;
74872;SDS011;68776;44.762;37.698;2023-04-16T04:32:41;12.27;;;5.65;;
74872;SDS011;68776;44.762;37.698;2023-04-16T04:33:43;11.30;;;5.28;;
74872;SDS011;68776;44.762;37.698;2023-04-16T04:34:44;12.57;;;5.88;;
74872;SDS011;68776;44.762;37.698;2023-04-16T04:35:45;11.40;;;5.03;;
74872;SDS011;68776;44.762;37.698;2023-04-16T04:36:46;13.20;;;5.40;;
74872;SDS011;68776;44.762;37.698;2023-04-16T04:37:47;11.80;;;5.80;;
74872;SDS011;68776;44.762;37.698;2023-04-16T04:38:52;12.30;;;5.22;;
74872;SDS011;68776;44.762;37.698;2023-04-16T04:39:53;15.73;;;5.78;;
74872;SDS011;68776;44.762;37.698;2023-04-16T04:40:55;11.50;;;5.40;;
74872;SDS011;68776;44.762;37.698;2023-04-16T04:41:57;13.60;;;6.30;;
74872;SDS011;68776;44.762;37.698;2023-04-16T04:42:58;13.32;;;5.60;;
74872;SDS011;68776;44.762;37.698;2023-04-16T04:43:59;17.38;;;6.70;;
74872;SDS011;68776;44.762;37.698;2023-04-16T04:45:00;12.63;;;6.13;;
74872;SDS011;68776;44.762;37.698;2023-04-16T04:46:04;13.40;;;5.82;;
74872;SDS011;68776;44.762;37.698;2023-04-16T04:47:06;12.60;;;5.20;;
74872;SDS011;68776;44.762;37.698;2023-04-16T04:48:07;12.50;;;5.72;;
74872;SDS011;68776;44.762;37.698;2023-04-16T04:49:08;12.63;;;5.55;;
74872;SDS011;68776;44.762;37.698;2023-04-16T04:50:09;11.80;;;5.65;;
74872;SDS011;68776;44.762;37.698;2023-04-16T04:51:11;12.30;;;5.53;;
74872;SDS011;68776;44.762;37.698;2023-04-16T04:52:12;11.95;;;4.95;;
74872;SDS011;68776;44.762;37.698;2023-04-16T04:53:14;12.60;;;5.33;;
74872;SDS011;68776;44.762;37.698;2023-04-16T04:54:16;10.45;;;4.30;;
74872;SDS011;68776;44.762;37.698;2023-04-16T04:55:17;11.75;;;4.00;;
74872;SDS011;68776;44.762;37.698;2023-04-16T04:56:18;12.13;;;4.72;;
74872;SDS011;68776;44.762;37.698;2023-04-16T04:57:19;13.55;;;4.97;;
74872;SDS011;68776;44.762;37.698;2023-04-16T04:58:24;10.10;;;4.70;;
74872;SDS011;68776;44.762;37.698;2023-04-16T04:59:25;11.18;;;5.13;;
74872;SDS011;68776;44.762;37.698;2023-04-16T05:00:26;10.80;;;4.88;;
74872;SDS011;68776;44.762;37.698;2023-04-16T05:01:28;13.23;;;5.77;;
74872;SDS011;68776;44.762;37.698;2023-04-16T05:02:29;13.57;;;5.60;;
74872;SDS011;68776;44.762;37.698;2023-04-16T05:03:30;11.70;;;5.20;;
74872;SDS011;68776;44.762;37.698;2023-04-16T05:04:31;11.38;;;4.97;;
74872;SDS011;68776;44.762;37.698;2023-04-16T05:05:32;12.98;;;5.65;;
74872;SDS011;68776;44.762;37.698;2023-04-16T05:06:33;15.45;;;5.60;;
74872;SDS011;68776;44.762;37.698;2023-04-16T05:07:34;11.57;;;5.57;;
74872;SDS011;68776;44.762;37.698;2023-04-16T05:08:35;10.45;;;4.57;;
74872;SDS011;68776;44.762;37.698;2023-04-16T05:09:36;16.35;;;5.55;;
74872;SDS011;68776;44.762;37.698;2023-04-16T05:10:37;15.40;;;5.83;;
74872;SDS011;68776;44.762;37.698;2023-04-16T05:11:39;11.35;;;5.15;;
74872;SDS011;68776;44.762;37.698;2023-04-16T05:12:41;11.70;;;5.10;;
74872;SDS011;68776;44.762;37.698;2023-04-16T05:13:42;15.70;;;5.68;;
74872;SDS011;68776;44.762;37.698;2023-04-16T05:14:42;12.00;;;4.82;;
74872;SDS011;68776;44.762;37.698;2023-04-16T05:15:43;18.33;;;5.65;;
74872;SDS011;68776;44.762;37.698;2023-04-16T05:16:45;17.45;;;5.90;;
74872;SDS011;68776;44.762;37.698;2023-04-16T05:17:46;14.02;;;5.72;;
74872;SDS011;68776;44.762;37.698;2023-04-16T05:18:47;14.07;;;5.75;;
74872;SDS011;68776;44.762;37.698;2023-04-16T05:19:49;11.32;;;4.32;;
74872;SDS011;68776;44.762;37.698;2023-04-16T05:20:50;17.77;;;5.17;;
74872;SDS011;68776;44.762;37.698;2023-04-16T05:21:51;13.10;;;5.22;;
74872;SDS011;68776;44.762;37.698;2023-04-16T05:22:52;14.23;;;6.30;;
74872;SDS011;68776;44.762;37.698;2023-04-16T05:23:54;13.98;;;6.75;;
74872;SDS011;68776;44.762;37.698;2023-04-16T05:24:55;13.40;;;5.78;;
74872;SDS011;68776;44.762;37.698;2023-04-16T05:25:56;24.27;;;5.30;;
74872;SDS011;68776;44.762;37.698;2023-04-16T05:26:57;12.95;;;5.78;;
74872;SDS011;68776;44.762;37.698;2023-04-16T05:27:58;12.93;;;6.15;;
74872;SDS011;68776;44.762;37.698;2023-04-16T05:28:59;12.80;;;5.63;;
74872;SDS011;68776;44.762;37.698;2023-04-16T05:30:00;14.18;;;5.95;;
74872;SDS011;68776;44.762;37.698;2023-04-16T05:31:01;11.23;;;4.80;;
74872;SDS011;68776;44.762;37.698;2023-04-16T05:32:01;12.43;;;5.95;;
74872;SDS011;68776;44.762;37.698;2023-04-16T05:33:02;12.88;;;5.05;;
74872;SDS011;68776;44.762;37.698;2023-04-16T05:34:03;15.63;;;5.90;;
74872;SDS011;68776;44.762;37.698;2023-04-16T05:35:04;13.10;;;5.50;;
74872;SDS011;68776;44.762;37.698;2023-04-16T05:36:06;13.65;;;5.78;;
74872;SDS011;68776;44.762;37.698;2023-04-16T05:37:07;14.80;;;6.70;;
74872;SDS011;68776;44.762;37.698;2023-04-16T05:38:07;13.07;;;5.30;;
74872;SDS011;68776;44.762;37.698;2023-04-16T05:39:09;14.60;;;6.22;;
74872;SDS011;68776;44.762;37.698;2023-04-16T05:40:12;16.50;;;6.80;;
74872;SDS011;68776;44.762;37.698;2023-04-16T05:41:13;12.30;;;5.45;;
74872;SDS011;68776;44.762;37.698;2023-04-16T05:42:14;13.30;;;6.82;;
74872;SDS011;68776;44.762;37.698;2023-04-16T05:43:15;15.40;;;6.05;;
74872;SDS011;68776;44.762;37.698;2023-04-16T05:44:17;14.07;;;5.83;;
74872;SDS011;68776;44.762;37.698;2023-04-16T05:45:18;11.40;;;5.60;;
74872;SDS011;68776;44.762;37.698;2023-04-16T05:46:19;16.65;;;7.03;;
74872;SDS011;68776;44.762;37.698;2023-04-16T05:47:19;13.50;;;5.07;;
74872;SDS011;68776;44.762;37.698;2023-04-16T05:48:21;19.88;;;5.93;;
74872;SDS011;68776;44.762;37.698;2023-04-16T05:49:22;12.03;;;5.30;;
74872;SDS011;68776;44.762;37.698;2023-04-16T05:50:23;12.68;;;6.10;;
74872;SDS011;68776;44.762;37.698;2023-04-16T05:51:24;11.77;;;6.00;;
74872;SDS011;68776;44.762;37.698;2023-04-16T05:52:26;11.73;;;6.10;;
74872;SDS011;68776;44.762;37.698;2023-04-16T05:53:27;13.10;;;5.93;;
74872;SDS011;68776;44.762;37.698;2023-04-16T05:54:28;12.60;;;5.10;;
74872;SDS011;68776;44.762;37.698;2023-04-16T05:55:29;14.25;;;6.88;;
74872;SDS011;68776;44.762;37.698;2023-04-16T05:56:30;13.48;;;5.95;;
74872;SDS011;68776;44.762;37.698;2023-04-16T05:57:31;13.50;;;5.55;;
74872;SDS011;68776;44.762;37.698;2023-04-16T05:58:33;11.82;;;5.90;;
74872;SDS011;68776;44.762;37.698;2023-04-16T05:59:33;12.88;;;5.93;;
74872;SDS011;68776;44.762;37.698;2023-04-16T06:00:34;17.88;;;6.60;;
74872;SDS011;68776;44.762;37.698;2023-04-16T06:01:35;15.23;;;6.47;;